Tiempo atmosférico en la estación meteorológica de Santillana del Mar, Altamira, Cantabria (150 m.)



Fecha
DESCASC
Temp. máxima en grados centígrados (hora)
DESCASC
Temp. mínima en grados centígrados (hora)
DESCASC
Temp. media en grados centígrados
DESCASC
Racha de viento máxima en m/sg (hora)
DESCASC
Velocidad máxima media en intervalos de 10 minutos(hora)
DESCASC
Precipitaciones diarias en mm
DESCASC
Precipitaciones de 00:00 a 06:00 en mm
DESCASC
Precipitaciones de 06:00 a 12:00 en mm
DESCASC
Precipitaciones de 12:00 a 18:00 en mm
DESCASC
Precipitaciones de 18:00 a 24:00 en mm
DESCASC
04-03-2021 17.8 (13:40) 6.5 (07:30) 12.1 5.28 (15:00) 3.61 (04:10) 0 0 0 0 0
03-03-2021 16.9 (14:30) 8.7 (06:00) 12.8 6.39 (15:40) 4.17 (15:20) 0 0 0 0 0
02-03-2021 17.7 (11:00) 10.7 (23:50) 14.2 11.94 (13:00) 8.33 (13:00) 0 0 0 0 0
01-03-2021 17.9 (15:00) 7.6 (00:50) 12.7 16.11 (11:20) 10.83 (11:00) 0 0 0 0 0
28-02-2021 11.9 (13:50) 3.2 (00:00) 7.5 7.5 (17:30) 3.61 (17:30) 0 0 0 0 0
27-02-2021 11.5 (15:00) 7.1 (00:00) 9.3 6.39 (10:40) 3.61 (10:10) 0.4 0 0.4 0 0
26-02-2021 13 (13:20) 10 (00:00) 11.5 4.72 (13:40) 2.5 (13:40) 1 1 0 0 0
25-02-2021 16.1 (00:10) 10.4 (00:00) 13.3 9.72 (03:00) 4.72 (02:10) 0 0 0 0 0
24-02-2021 22.4 (14:30) 11 (00:00) 16.7 11.39 (09:50) 7.78 (16:00) 0 0 0 0 0
23-02-2021 19.4 (14:00) 7 (00:00) 13.2 10 (15:00) 6.67 (15:10) 0 0 0 0 0
22-02-2021 12.7 (15:20) 6.2 (00:00) 9.4 7.22 (08:30) 3.61 (08:10) 6.6 5.6 1 0 0
21-02-2021 18.1 (00:00) 6.2 (00:00) 12.2 12.22 (00:20) 6.94 (00:20) 13.2 0 0 1.6 11.6
20-02-2021 21.2 (16:40) 14.5 (00:00) 17.9 22.22 (22:40) 13.89 (22:40) 0 0 0 0 0
19-02-2021 18.3 (12:20) 6 (00:00) 12.1 20.83 (18:10) 15 (18:10) 0 0 0 0 0
18-02-2021 17.5 (02:50) 6.7 (00:00) 12.1 16.39 (04:50) 8.33 (04:40) 1.6 0 0.4 1.2 0
17-02-2021 17.6 (21:20) 6.7 (00:00) 12.2 14.72 (21:10) 9.17 (21:20) 0 0 0 0 0
16-02-2021 17.6 (04:40) 9.7 (00:00) 13.7 16.11 (06:30) 11.67 (06:30) 0 0 0 0 0
15-02-2021 21.7 (14:30) 12.6 (00:00) 17.2 14.72 (21:30) 10 (21:30) 0 0 0 0 0
14-02-2021 20.5 (13:20) 7.5 (00:00) 14 8.89 (18:20) 5.28 (18:20) 0 0 0 0 0
13-02-2021 15.9 (17:00) 7.4 (00:00) 11.6 4.44 (06:30) 2.78 (03:00) 0.2 0 0.2 0 0
12-02-2021 13 (00:40) 9 (00:00) 11 12.5 (02:30) 5.83 (02:00) 9.6 5.4 3.2 1 0
11-02-2021 16.3 (16:20) 8.2 (00:00) 12.2 7.5 (12:50) 3.33 (12:50) 0.2 0 0 0.2 0
10-02-2021 13.2 (14:10) 6.5 (00:00) 9.8 13.61 (12:40) 5.56 (12:20) 1.8 1.8 0 0 0
09-02-2021 14 (11:10) 7.5 (00:00) 10.8 13.89 (10:10) 8.33 (07:10) 2.4 0 0.6 1.8 0
08-02-2021 13.8 (12:00) 8.3 (00:00) 11.1 7.78 (13:40) 4.72 (14:00) 0.2 0 0 0.2 0
07-02-2021 10 (15:10) 3.8 (00:00) 6.9 6.11 (01:00) 3.61 (06:50) 0.8 0 0 0.2 0.6
06-02-2021 9.7 (00:20) 5.5 (00:00) 7.6 15.83 (04:20) 8.61 (03:40) 63.8 25 23.8 12.4 2.6
05-02-2021 9.8 (22:50) 7.6 (00:00) 8.7 7.22 (23:40) 3.61 (23:40) 13.8 0.6 3.6 2.4 7.2
04-02-2021 13.5 (14:00) 8 (00:00) 10.8 5.28 (03:40) 3.89 (00:40) 1 0 0 0.4 0.6

Gráficas

Temp. máximas Temp. mínimas Temp. medias Precipitaciones Rachas de viento máximas Velocidades máximas media en intervalos de 10 minutos

Datos horarios

Fecha y hora oficial Temperatura (ºC) Velocidad del viento (km/h) Dirección del viento Racha (km/h) Dirección de racha Precipitación (mm) Presión (hPa) Tendencia (hPa) Humedad (%)
2021-03-05 23:00:00 9 3 Nordeste 12 Nordeste 0 -- -- 89
2021-03-05 22:00:00 9.1 5 Nordeste 12 Nordeste 0 -- -- 89
2021-03-05 21:00:00 9.2 7 Nordeste 20 Nordeste 0 -- -- 90
2021-03-05 20:00:00 9.4 9 Nordeste 23 Nordeste 0 -- -- 90
2021-03-05 19:00:00 9.7 12 Nordeste 24 Nordeste 0 -- -- 89
2021-03-05 18:00:00 10.2 10 Nordeste 27 Nordeste 0 -- -- 88
2021-03-05 17:00:00 10.6 11 Norte 28 Nordeste 0 -- -- 88
2021-03-05 16:00:00 11.4 9 Nordeste 24 Nordeste 0 -- -- 87
2021-03-05 15:00:00 10.8 10 Nordeste 21 Nordeste 0 -- -- 97
2021-03-05 14:00:00 10.5 5 Norte 11 Norte 0.2 -- -- 98
2021-03-05 13:00:00 10.4 0 Calma 5 Sudeste 0 -- -- 97
2021-03-05 12:00:00 10 4 Sudoeste 10 Sudoeste 0 -- -- 96
2021-03-05 11:00:00 9.5 8 Sur 11 Sudoeste 0 -- -- 94
2021-03-05 10:00:00 9.2 8 Sudoeste 13 Oeste 0 -- -- 96
2021-03-05 09:00:00 9 7 Sudoeste 13 Sudoeste 0 -- -- 98
2021-03-05 08:00:00 8.5 7 Sudoeste 15 Sudoeste 0 -- -- 99
2021-03-05 07:00:00 8.1 10 Sudoeste 15 Sudoeste 0 -- -- 99
2021-03-05 06:00:00 9 5 Sudoeste 8 Sur 0 -- -- 99
2021-03-05 05:00:00 9.2 0 Calma 9 Sudoeste 0 -- -- 99
2021-03-05 04:00:00 9.4 4 Sur 9 Sudeste 0 -- -- 98
2021-03-05 03:00:00 9.7 0 Calma 10 Sur 0 -- -- 98
2021-03-05 02:00:00 9.9 3 Sudeste 12 Este 0 -- -- 98
2021-03-05 01:00:00 9.8 6 Este 10 Este 0 -- -- 98
2021-03-05 00:00:00 9.2 4 Norte 6 Nordeste 0 -- -- 96
2021-03-04 23:00:00 9.3 3 Norte 4 Nordeste 0 -- -- 95
2021-03-04 22:00:00 9.9 2 Nordeste 4 Nordeste 0 -- -- 94
2021-03-04 21:00:00 10.3 0 Calma 4 Este 0 -- -- 94
2021-03-04 20:00:00 10.8 4 Nordeste 15 Nordeste 0 -- -- 90
2021-03-04 19:00:00 12.1 7 Nordeste 13 Nordeste 0 -- -- 87
2021-03-04 18:00:00 13.9 4 Norte 16 Nordeste 0 -- -- 82
2021-03-04 17:00:00 15.7 9 Norte 17 Nordeste 0 -- -- 71
2021-03-04 16:00:00 17 9 Norte 18 Nordeste 0 -- -- 61
2021-03-04 15:00:00 17.8 9 Nordeste 19 Nordeste 0 -- -- 55
2021-03-04 14:00:00 17.8 9 Nordeste 18 Nordeste 0 -- -- 54
2021-03-04 13:00:00 17.1 7 Nordeste 15 Este 0 -- -- 57
2021-03-04 12:00:00 16.6 6 Este 13 Este 0 -- -- 53
2021-03-04 11:00:00 14.5 5 Sudeste 10 Sudeste 0 -- -- 59
2021-03-04 10:00:00 11.5 3 Sudeste 11 Sudoeste 0 -- -- 69
2021-03-04 09:00:00 9 6 Sur 13 Sudoeste 0 -- -- 82
2021-03-04 08:00:00 7.6 9 Sudoeste 14 Sudoeste 0 -- -- 86
2021-03-04 07:00:00 6.9 8 Sur 14 Sudoeste 0 -- -- 84
2021-03-04 06:00:00 7.6 11 Sudoeste 15 Sudoeste 0 -- -- 89
2021-03-04 05:00:00 7.9 10 Sur 16 Sudoeste 0 -- -- 86
2021-03-04 04:00:00 8.4 10 Sudoeste 13 Sudoeste 0 -- -- 87
2021-03-04 03:00:00 7.9 8 Sudoeste 13 Sudoeste 0 -- -- 93
2021-03-04 02:00:00 8.2 0 Calma 12 Sudoeste 0 -- -- 93
2021-03-04 01:00:00 8.5 5 Sudoeste 8 Sudoeste 0 -- -- 92
2021-03-04 00:00:00 10.1 6 Sudoeste 10 Sudoeste 0 -- -- 90
2021-03-03 23:00:00 10.9 0 Calma 4 Sur 0 -- -- 89
2021-03-03 22:00:00 11.2 0 Calma 4 Sudoeste 0 -- -- 89
2021-03-03 21:00:00 11.4 0 Calma 7 Nordeste 0 -- -- 86
2021-03-03 20:00:00 11.4 4 Norte 6 Norte 0 -- -- 88
2021-03-03 19:00:00 12.4 3 Norte 10 Norte 0 -- -- 84
2021-03-03 18:00:00 13.9 8 Norte 13 Norte 0 -- -- 79
2021-03-03 17:00:00 15.2 8 Norte 19 Noroeste 0 -- -- 65
2021-03-03 16:00:00 15.8 13 Norte 23 Norte 0 -- -- 56
2021-03-03 15:00:00 16.5 14 Norte 20 Norte 0 -- -- 55
2021-03-03 14:00:00 16.6 10 Norte 16 Norte 0 -- -- 63
2021-03-03 13:00:00 15.9 10 Norte 18 Norte 0 -- -- 71
2021-03-03 12:00:00 15.6 5 Norte 9 Norte 0 -- -- 63
2021-03-03 11:00:00 13.8 5 Nordeste 10 Nordeste 0 -- -- 72
2021-03-03 10:00:00 11.6 7 Sur 11 Sur 0 -- -- 85
2021-03-03 09:00:00 9.7 7 Sudoeste 12 Sudoeste 0 -- -- 93
2021-03-03 08:00:00 8.8 0 Calma 8 Sudoeste 0 -- -- 94
2021-03-03 07:00:00 9.1 3 Sudoeste 13 Sudoeste 0 -- -- 94
2021-03-03 06:00:00 8.7 0 Calma 8 Sudoeste 0 -- -- 96
2021-03-03 05:00:00 9.5 3 Sur 10 Sur 0 -- -- 96
2021-03-03 04:00:00 9.5 5 Sur 8 Sur 0 -- -- 95
2021-03-03 03:00:00 10.8 0 Calma 4 Sudoeste 0 -- -- 91
2021-03-03 02:00:00 10.8 3 Sudoeste 12 Sudoeste 0 -- -- 93
2021-03-03 01:00:00 10.4 5 Sudoeste 10 Sudoeste 0 -- -- 94
2021-03-03 00:00:00 10.7 0 Calma 11 Sudoeste 0 -- -- 95
2021-03-02 23:00:00 11 3 Sudoeste 8 Sudoeste 0 -- -- 96
2021-03-02 22:00:00 11.1 3 Oeste 14 Oeste 0 -- -- 95
2021-03-02 21:00:00 11.5 5 Sudoeste 12 Sudoeste 0 -- -- 94
2021-03-02 20:00:00 11.6 7 Oeste 25 Noroeste 0 -- -- 93
2021-03-02 19:00:00 12.5 9 Noroeste 22 Noroeste 0 -- -- 87
2021-03-02 18:00:00 14.3 4 Norte 17 Norte 0 -- -- 71
2021-03-02 17:00:00 14.3 10 Norte 18 Noroeste 0 -- -- 84
2021-03-02 16:00:00 13.7 11 Norte 24 Noroeste 0 -- -- 84
2021-03-02 15:00:00 15 10 Norte 28 Sur 0 -- -- 75
2021-03-02 14:00:00 16.8 21 Sur 40 Sudoeste 0 -- -- 47
2021-03-02 13:00:00 16.5 30 Sur 43 Sur 0 -- -- 47
2021-03-02 12:00:00 17.3 22 Sur 39 Sur 0 -- -- 48
2021-03-02 11:00:00 17.7 6 Sudoeste 33 Sur 0 -- -- 46
2021-03-02 10:00:00 15.5 18 Sur 28 Sur 0 -- -- 51
2021-03-02 09:00:00 12.8 8 Sur 10 Sur 0 -- -- 60
2021-03-02 08:00:00 11.5 2 Norte 12 Sur 0 -- -- 61
2021-03-02 07:00:00 11.7 10 Sur 20 Sur 0 -- -- 63
2021-03-02 06:00:00 12.2 11 Sur 27 Sur 0 -- -- 60
2021-03-02 05:00:00 12.9 16 Sur 32 Sur 0 -- -- 57
2021-03-02 04:00:00 12.9 15 Sur 24 Sudeste 0 -- -- 58
2021-03-02 03:00:00 11.8 10 Sur 16 Sudeste 0 -- -- 63
2021-03-02 02:00:00 11.9 9 Sudeste 15 Sudeste 0 -- -- 62
2021-03-02 01:00:00 12.4 6 Sudeste 27 Sudeste 0 -- -- 59
2021-03-02 00:00:00 13.4 22 Sudeste 49 Sur 0 -- -- 55
2021-03-01 23:00:00 14.2 28 Sur 47 Sur 0 -- -- 50
2021-03-01 22:00:00 14 17 Sur 45 Sur 0 -- -- 51
2021-03-01 21:00:00 14.2 24 Sur 41 Sudoeste 0 -- -- 51
2021-03-01 20:00:00 14.5 19 Sur 39 Sur 0 -- -- 52
2021-03-01 19:00:00 15.1 21 Sudeste 40 Este 0 -- -- 50
2021-03-01 18:00:00 16.1 20 Sudeste 31 Sudeste 0 -- -- 47
2021-03-01 17:00:00 16.9 10 Sur 40 Sur 0 -- -- 48
2021-03-01 16:00:00 17.2 30 Sur 47 Sur 0 -- -- 43
2021-03-01 15:00:00 17.9 15 Sur 39 Sur 0 -- -- 44
2021-03-01 14:00:00 17 26 Sur 43 Sur 0 -- -- 46
2021-03-01 13:00:00 16.2 28 Sur 45 Sudeste 0 -- -- 55
2021-03-01 12:00:00 15.3 23 Sudeste 58 Sur 0 -- -- 60
2021-03-01 11:00:00 13.3 39 Sur 58 Sur 0 -- -- 62
2021-03-01 10:00:00 11.8 25 Sur 46 Sudeste 0 -- -- 66
2021-03-01 09:00:00 11.3 31 Sur 49 Sur 0 -- -- 68
2021-03-01 08:00:00 10.8 18 Sudeste 42 Sudeste 0 -- -- 70
2021-03-01 07:00:00 11.3 19 Sudeste 36 Sur 0 -- -- 69
2021-03-01 06:00:00 11.7 16 Sur 49 Sur 0 -- -- 66
2021-03-01 05:00:00 12 38 Sur 55 Sur 0 -- -- 65
2021-03-01 04:00:00 12.6 27 Sur 51 Sudeste 0 -- -- 63
2021-03-01 03:00:00 11.4 16 Sudeste 25 Sudeste 0 -- -- 75
2021-03-01 02:00:00 9.4 14 Sur 26 Sudeste 0 -- -- 89
2021-03-01 01:00:00 7.7 6 Sur 14 Sudeste 0 -- -- 96
2021-03-01 00:00:00 7.9 10 Sudeste 16 Este 0 -- -- 96
2021-02-28 23:00:00 8.2 8 Sudeste 16 Sudeste 0 -- -- 94
2021-02-28 22:00:00 8.9 10 Sudeste 17 Sudeste 0 -- -- 94
2021-02-28 21:00:00 9.1 3 Este 12 Este 0 -- -- 93
2021-02-28 20:00:00 9.2 6 Este 15 Este 0 -- -- 92
2021-02-28 19:00:00 9.5 8 Nordeste 20 Nordeste 0 -- -- 89
2021-02-28 18:00:00 10.3 12 Nordeste 27 Nordeste 0 -- -- 85
2021-02-28 17:00:00 11.4 12 Nordeste 26 Nordeste 0 -- -- 78
2021-02-28 16:00:00 11.8 9 Nordeste 22 Nordeste 0 -- -- 75
2021-02-28 15:00:00 11.9 12 Nordeste 21 Nordeste 0 -- -- 75
2021-02-28 14:00:00 11.9 6 Este 15 Sudeste 0 -- -- 71
2021-02-28 13:00:00 10.8 6 Este 19 Nordeste 0 -- -- 77
2021-02-28 12:00:00 10.1 6 Este 13 Este 0 -- -- 79
2021-02-28 11:00:00 9.2 6 Sudeste 9 Sudeste 0 -- -- 78
2021-02-28 10:00:00 6.1 8 Sudoeste 14 Sudoeste 0 -- -- 85
2021-02-28 09:00:00 5.3 8 Sur 17 Sudoeste 0 -- -- 87
2021-02-28 08:00:00 5 9 Sudoeste 14 Sudoeste 0 -- -- 90
2021-02-28 07:00:00 4.5 8 Sudoeste 13 Sudoeste 0 -- -- 92
2021-02-28 06:00:00 4.6 10 Sudoeste 15 Sudoeste 0 -- -- 87
2021-02-28 05:00:00 4.9 8 Sudoeste 14 Sudoeste 0 -- -- 91
2021-02-28 04:00:00 5.2 6 Sudoeste 10 Sudoeste 0 -- -- 89
2021-02-28 03:00:00 6.2 5 Sudoeste 11 Sudoeste 0 -- -- 85
2021-02-28 02:00:00 6.7 4 Sudoeste 9 Oeste 0 -- -- 84
2021-02-28 01:00:00 7.4 5 Sudoeste 12 Sudoeste 0 -- -- 83
2021-02-28 00:00:00 8 5 Sudoeste 13 Sudoeste 0 -- -- 84
2021-02-27 23:00:00 7.8 9 Sudoeste 13 Sudoeste 0 -- -- 86
2021-02-27 22:00:00 7.2 5 Sudoeste 7 Sudoeste 0 -- -- 87
2021-02-27 21:00:00 7.4 2 Sudeste 5 Este 0 -- -- 84
2021-02-27 20:00:00 8.3 2 Este 12 Norte 0 -- -- 82
2021-02-27 19:00:00 8.7 3 Norte 15 Nordeste 0 -- -- 81
2021-02-27 18:00:00 9.3 7 Nordeste 18 Norte 0 -- -- 77
2021-02-27 17:00:00 10.6 9 Norte 20 Nordeste 0 -- -- 74
2021-02-27 16:00:00 11.1 9 Nordeste 20 Nordeste 0 -- -- 72
2021-02-27 15:00:00 11.5 9 Norte 20 Nordeste 0 -- -- 75
2021-02-27 14:00:00 10.7 11 Nordeste 21 Nordeste 0 -- -- 80
2021-02-27 13:00:00 11 9 Nordeste 18 Nordeste 0 -- -- 83
2021-02-27 12:00:00 10.5 9 Nordeste 21 Nordeste 0 -- -- 87
2021-02-27 11:00:00 9.7 10 Nordeste 23 Nordeste 0 -- -- 91
2021-02-27 10:00:00 9.6 11 Nordeste 20 Nordeste 0 -- -- 96
2021-02-27 09:00:00 9.8 7 Nordeste 14 Nordeste 0 -- -- 98
2021-02-27 08:00:00 10 6 Norte 12 Nordeste 0.4 -- -- 98
2021-02-27 07:00:00 10.1 4 Norte 9 Nordeste 0 -- -- 97
2021-02-27 06:00:00 10.2 0 Calma 7 Este 0 -- -- 95
2021-02-27 05:00:00 10.2 3 Este 10 Nordeste 0 -- -- 95
2021-02-27 04:00:00 10.3 5 Este 13 Nordeste 0 -- -- 94
2021-02-27 03:00:00 10.4 0 Calma 13 Este 0 -- -- 93
2021-02-27 02:00:00 10.4 5 Este 13 Este 0 -- -- 94
2021-02-27 01:00:00 10.6 2 Nordeste 11 Nordeste 0 -- -- 95
2021-02-27 00:00:00 10.6 2 Nordeste 13 Este 0 -- -- 95
2021-02-26 23:00:00 10.6 9 Nordeste 15 Este 0 -- -- 95
2021-02-26 22:00:00 10.7 6 Nordeste 16 Nordeste 0 -- -- 94
2021-02-26 21:00:00 10.7 5 Nordeste 15 Nordeste 0 -- -- 94
2021-02-26 20:00:00 10.8 7 Nordeste 17 Nordeste 0 -- -- 93
2021-02-26 19:00:00 11.1 3 Norte 14 Nordeste 0 -- -- 93
2021-02-26 18:00:00 11.6 6 Nordeste 14 Nordeste 0 -- -- 91
2021-02-26 17:00:00 12.1 8 Nordeste 15 Nordeste 0 -- -- 89
2021-02-26 16:00:00 12.2 7 Nordeste 14 Nordeste 0 -- -- 90
2021-02-26 15:00:00 11.8 6 Norte 13 Norte 0 -- -- 89
2021-02-26 14:00:00 12.7 7 Nordeste 17 Nordeste 0 -- -- 84
2021-02-26 13:00:00 12.7 6 Este 12 Nordeste 0 -- -- 87
2021-02-26 12:00:00 12 5 Sudeste 12 Nordeste 0 -- -- 95
2021-02-26 11:00:00 11.3 5 Este 9 Este 0 -- -- 98
2021-02-26 10:00:00 10.6 4 Este 12 Nordeste 0 -- -- 100
2021-02-26 09:00:00 10.1 3 Este 7 Sudeste 0 -- -- 100
2021-02-26 08:00:00 10.1 2 Nordeste 6 Este 0 -- -- 100
2021-02-26 07:00:00 10.1 0 Calma 7 Este 0 -- -- 100
2021-02-26 06:00:00 10.1 0 Calma 10 Este 0 -- -- 100
2021-02-26 05:00:00 10.1 2 Nordeste 6 Norte 0 -- -- 100
2021-02-26 04:00:00 10.2 4 Norte 10 Nordeste 1 -- -- 100
2021-02-26 03:00:00 10.6 2 Sur 6 Norte 0 -- -- 99
2021-02-26 02:00:00 10.6 3 Norte 5 Norte 0 -- -- 99
2021-02-26 01:00:00 10.6 0 Calma 4 Sudoeste 0 -- -- 99
2021-02-26 00:00:00 10.6 3 Sudoeste 6 Sudoeste 0 -- -- 99
2021-02-25 23:00:00 10.7 4 Sudoeste 5 Sudoeste 0 -- -- 98
2021-02-25 22:00:00 10.8 2 Sur 7 Oeste 0 -- -- 98
2021-02-25 21:00:00 10.8 0 Calma 5 Oeste 0 -- -- 97
2021-02-25 20:00:00 10.8 2 Noroeste 9 Oeste 0 -- -- 97
2021-02-25 19:00:00 10.9 4 Noroeste 13 Noroeste 0 -- -- 96
2021-02-25 18:00:00 11.2 4 Oeste 15 Noroeste 0 -- -- 94
2021-02-25 17:00:00 11.3 8 Noroeste 17 Oeste 0 -- -- 92
2021-02-25 16:00:00 12 7 Noroeste 15 Noroeste 0 -- -- 89
2021-02-25 15:00:00 11.7 6 Noroeste 23 Noroeste 0 -- -- 92
2021-02-25 14:00:00 11.9 11 Noroeste 25 Noroeste 0 -- -- 88
2021-02-25 13:00:00 12 12 Noroeste 25 Noroeste 0 -- -- 89
2021-02-25 12:00:00 12 9 Noroeste 22 Oeste 0 -- -- 90
2021-02-25 11:00:00 12.7 8 Oeste 21 Oeste 0 -- -- 86
2021-02-25 10:00:00 12.1 9 Noroeste 19 Oeste 0 -- -- 89
2021-02-25 09:00:00 10.6 4 Sudoeste 10 Oeste 0 -- -- 87
2021-02-25 08:00:00 10.4 4 Oeste 11 Sudoeste 0 -- -- 90
2021-02-25 07:00:00 10.6 5 Sudoeste 18 Sudoeste 0 -- -- 90
2021-02-25 06:00:00 10.9 6 Sudoeste 13 Sudoeste 0 -- -- 90
2021-02-25 05:00:00 11.7 6 Oeste 19 Sudoeste 0 -- -- 89
2021-02-25 04:00:00 11.8 9 Sudoeste 30 Sudoeste 0 -- -- 86
2021-02-25 03:00:00 13.1 14 Oeste 35 Oeste 0 -- -- 70
2021-02-25 02:00:00 15.4 15 Sudeste 22 Sudeste 0 -- -- 45
2021-02-25 01:00:00 15.7 10 Sudoeste 17 Sur 0 -- -- 44
2021-02-25 00:00:00 16 6 Sur 32 Sur 0 -- -- 42
2021-02-24 23:00:00 15.7 22 Sur 35 Sur 0 -- -- 43
2021-02-24 22:00:00 16 12 Sur 20 Sur 0 -- -- 40
2021-02-24 21:00:00 17.5 19 Sur 33 Sur 0 -- -- 34
2021-02-24 20:00:00 17.8 21 Sur 36 Sur 0 -- -- 34
2021-02-24 19:00:00 18.2 21 Sur 39 Sur 0 -- -- 34
2021-02-24 18:00:00 19.3 26 Sur 39 Sur 0 -- -- 30
2021-02-24 17:00:00 20.1 23 Sur 39 Sur 0 -- -- 31
2021-02-24 16:00:00 20.2 28 Sur 40 Sudeste 0 -- -- 32
2021-02-24 15:00:00 22.1 17 Sur 28 Sur 0 -- -- 26
2021-02-24 14:00:00 21.7 13 Sur 28 Sur 0 -- -- 21
2021-02-24 13:00:00 20.4 18 Sur 37 Sur 0 -- -- 28
2021-02-24 12:00:00 18.5 19 Sur 31 Sur 0 -- -- 35
2021-02-24 11:00:00 16.4 23 Sur 33 Sur 0 -- -- 36
2021-02-24 10:00:00 14.8 22 Sur 41 Sur 0 -- -- 40
2021-02-24 09:00:00 12.8 13 Sur 27 Sudeste 0 -- -- 44
2021-02-24 08:00:00 12.2 18 Sur 31 Sur 0 -- -- 43
2021-02-24 07:00:00 11.7 21 Sur 30 Sur 0 -- -- 44
2021-02-24 06:00:00 11.9 17 Sur 25 Sur 0 -- -- 42
2021-02-24 05:00:00 12 16 Sur 32 Sur 0 -- -- 44
2021-02-24 04:00:00 12.5 18 Sur 27 Sur 0 -- -- 41
2021-02-24 03:00:00 13 17 Sur 36 Sur 0 -- -- 40
2021-02-24 02:00:00 12.7 16 Sur 27 Sur 0 -- -- 38
2021-02-24 01:00:00 12.4 14 Sur 23 Sur 0 -- -- 37
2021-02-24 00:00:00 12.4 12 Sur 15 Sur 0 -- -- 34
2021-02-23 23:00:00 13.6 8 Sur 13 Sur 0 -- -- 28
2021-02-23 22:00:00 12.2 11 Sur 19 Sur 0 -- -- 30
2021-02-23 21:00:00 13.1 12 Sur 22 Sur 0 -- -- 27
2021-02-23 20:00:00 13.9 14 Sur 22 Sur 0 -- -- 27
2021-02-23 19:00:00 15 15 Sur 23 Sur 0 -- -- 24
2021-02-23 18:00:00 17.2 14 Sur 24 Sur 0 -- -- 24
2021-02-23 17:00:00 19 16 Sur 31 Sudeste 0 -- -- 21
2021-02-23 16:00:00 19.3 19 Sur 36 Sudeste 0 -- -- 23
2021-02-23 15:00:00 19.2 23 Sudeste 36 Sudeste 0 -- -- 23
2021-02-23 14:00:00 19.4 15 Sur 28 Sur 0 -- -- 26
2021-02-23 13:00:00 18.5 17 Sur 29 Sur 0 -- -- 27
2021-02-23 12:00:00 17.5 17 Sur 27 Sur 0 -- -- 28
2021-02-23 11:00:00 15.2 16 Sur 27 Sur 0 -- -- 32
2021-02-23 10:00:00 12.3 13 Sur 23 Sur 0 -- -- 38
2021-02-23 09:00:00 9.6 8 Sur 22 Sur 0 -- -- 41
2021-02-23 08:00:00 8 12 Sudoeste 18 Sur 0 -- -- 53
2021-02-23 07:00:00 7.1 8 Sur 15 Sur 0 -- -- 61
2021-02-23 06:00:00 7.5 4 Sudeste 11 Sudeste 0 -- -- 60
2021-02-23 05:00:00 8.3 9 Sudoeste 17 Sudoeste 0 -- -- 59
2021-02-23 04:00:00 7.5 7 Sudoeste 13 Sudoeste 0 -- -- 67
2021-02-23 03:00:00 7.7 5 Sur 12 Sudoeste 0 -- -- 70
2021-02-23 02:00:00 7.8 7 Sudoeste 13 Sudoeste 0 -- -- 74
2021-02-23 01:00:00 7.4 8 Sudoeste 13 Sudoeste 0 -- -- 78
2021-02-23 00:00:00 7.1 5 Sudoeste 11 Sudoeste 0 -- -- 88
2021-02-22 23:00:00 7.1 4 Sur 13 Este 0 -- -- 89
2021-02-22 22:00:00 7.4 5 Sudeste 13 Este 0 -- -- 90
2021-02-22 21:00:00 8 9 Sudeste 12 Sudeste 0 -- -- 88
2021-02-22 20:00:00 8.9 6 Este 16 Este 0 -- -- 84
2021-02-22 19:00:00 9.4 8 Este 14 Este 0 -- -- 81
2021-02-22 18:00:00 10.5 6 Norte 16 Norte 0 -- -- 75
2021-02-22 17:00:00 12 9 Norte 15 Norte 0 -- -- 66
2021-02-22 16:00:00 12.6 9 Norte 17 Norte 0 -- -- 61
2021-02-22 15:00:00 12.6 10 Norte 19 Norte 0 -- -- 59
2021-02-22 14:00:00 12.5 12 Norte 23 Noroeste 0 -- -- 59
2021-02-22 13:00:00 12.1 9 Noroeste 24 Oeste 0 -- -- 64
2021-02-22 12:00:00 12 9 Noroeste 26 Noroeste 0 -- -- 67
2021-02-22 11:00:00 10 6 Oeste 22 Oeste 0 -- -- 77
2021-02-22 10:00:00 8.8 8 Sudoeste 22 Oeste 0 -- -- 80
2021-02-22 09:00:00 8 8 Sudoeste 26 Noroeste 0 -- -- 85
2021-02-22 08:00:00 7.3 8 Sudoeste 19 Oeste 0.4 -- -- 95
2021-02-22 07:00:00 7.4 8 Sudoeste 24 Sudoeste 0.6 -- -- 95
2021-02-22 06:00:00 7.5 8 Oeste 23 Oeste 0.2 -- -- 97
2021-02-22 05:00:00 7.5 10 Oeste 23 Oeste 0.4 -- -- 98
2021-02-22 04:00:00 6.5 9 Sudoeste 16 Sudoeste 0.6 -- -- 99
2021-02-22 03:00:00 6.2 8 Sudoeste 15 Sudoeste 1.2 -- -- 98
2021-02-22 02:00:00 6.3 10 Sudoeste 16 Sudoeste 1.6 -- -- 98
2021-02-22 01:00:00 6.2 10 Sudoeste 14 Sur 1.6 -- -- 98
2021-02-22 00:00:00 6.2 9 Sudoeste 17 Sudoeste 2.4 -- -- 97
2021-02-21 23:00:00 6.3 9 Sudoeste 18 Sudoeste 2.4 -- -- 96
2021-02-21 22:00:00 6.5 11 Sudoeste 23 Sudoeste 1.8 -- -- 95
2021-02-21 21:00:00 6.7 8 Sudoeste 27 Sudoeste 2.2 -- -- 95
2021-02-21 20:00:00 7 8 Sudoeste 23 Oeste 1.6 -- -- 96
2021-02-21 19:00:00 7.5 8 Oeste 28 Oeste 1.2 -- -- 97
2021-02-21 18:00:00 7.8 8 Noroeste 24 Noroeste 1 -- -- 96
2021-02-21 17:00:00 7.9 10 Noroeste 30 Noroeste 0.6 -- -- 95
2021-02-21 16:00:00 8.5 15 Noroeste 39 Oeste 0 -- -- 93
2021-02-21 15:00:00 9.7 14 Oeste 38 Noroeste 0 -- -- 93
2021-02-21 14:00:00 11.6 15 Noroeste 32 Noroeste 0 -- -- 89
2021-02-21 13:00:00 12.3 13 Noroeste 35 Norte 0 -- -- 83
2021-02-21 12:00:00 14.1 12 Norte 24 Norte 0 -- -- 73
2021-02-21 11:00:00 12.8 7 Noroeste 23 Noroeste 0 -- -- 80
2021-02-21 10:00:00 12 3 Noroeste 16 Noroeste 0 -- -- 82
2021-02-21 09:00:00 10.7 5 Oeste 23 Oeste 0 -- -- 89
2021-02-21 08:00:00 10.6 8 Noroeste 25 Noroeste 0 -- -- 89
2021-02-21 07:00:00 10.8 8 Oeste 23 Oeste 0 -- -- 90
2021-02-21 06:00:00 10.6 2 Norte 15 Noroeste 0 -- -- 90
2021-02-21 05:00:00 10.7 3 Este 13 Sur 0 -- -- 89
2021-02-21 04:00:00 11.6 2 Este 27 Sudoeste 0 -- -- 82
2021-02-21 03:00:00 11.9 9 Oeste 26 Oeste 0 -- -- 81
2021-02-21 02:00:00 12.8 8 Oeste 22 Sudoeste 0 -- -- 65
2021-02-21 01:00:00 14.9 16 Sudoeste 44 Sur 0 -- -- 46
2021-02-21 00:00:00 18.1 21 Sur 65 Sur 0 -- -- 18
2021-02-20 23:00:00 18.8 38 Sur 80 Sur 0 -- -- 15
2021-02-20 22:00:00 19.1 39 Sur 66 Sur 0 -- -- 16
2021-02-20 21:00:00 19.1 45 Sur 76 Sur 0 -- -- 17
2021-02-20 20:00:00 18.7 36 Sur 67 Sur 0 -- -- 19
2021-02-20 19:00:00 18.3 29 Sur 45 Sur 0 -- -- 21
2021-02-20 18:00:00 18.7 24 Sur 46 Sur 0 -- -- 23
2021-02-20 17:00:00 20.7 15 Sur 26 Sur 0 -- -- 23
2021-02-20 16:00:00 19.6 9 Sudeste 43 Sudoeste 0 -- -- 24
2021-02-20 15:00:00 19.9 29 Sur 51 Sudoeste 0 -- -- 15
2021-02-20 14:00:00 19.9 22 Sur 58 Sur 0 -- -- 16
2021-02-20 13:00:00 19.7 31 Sur 49 Sudeste 0 -- -- 22
2021-02-20 12:00:00 17.8 23 Sur 55 Sudeste 0 -- -- 27
2021-02-20 11:00:00 16.8 30 Sur 53 Sur 0 -- -- 28
2021-02-20 10:00:00 15.6 34 Sur 58 Sur 0 -- -- 29
2021-02-20 09:00:00 15.3 27 Sur 48 Sudeste 0 -- -- 27
2021-02-20 08:00:00 15.5 22 Sudeste 45 Sur 0 -- -- 27
2021-02-20 07:00:00 15.4 26 Sudeste 51 Sur 0 -- -- 28
2021-02-20 06:00:00 14.6 28 Sur 43 Sudeste 0 -- -- 35
2021-02-20 05:00:00 15 26 Sudeste 50 Sudeste 0 -- -- 35
2021-02-20 04:00:00 15.7 32 Sur 51 Sur 0 -- -- 32
2021-02-20 03:00:00 15.5 21 Sur 41 Sur 0 -- -- 33
2021-02-20 02:00:00 16.1 31 Sur 50 Sur 0 -- -- 31
2021-02-20 01:00:00 15.8 30 Sur 59 Sur 0 -- -- 33
2021-02-20 00:00:00 16.4 17 Sur 32 Sur 0 -- -- 33
2021-02-19 23:00:00 16.8 19 Sur 43 Sudoeste 0 -- -- 29
2021-02-19 22:00:00 17.5 23 Sudoeste 44 Sudoeste 0 -- -- 26
2021-02-19 21:00:00 16.9 17 Sur 38 Sudoeste 0 -- -- 26
2021-02-19 20:00:00 17.2 11 Sur 34 Sur 0 -- -- 22
2021-02-19 19:00:00 16.9 16 Sur 75 Sur 0 -- -- 30
2021-02-19 18:00:00 18.2 42 Sur 71 Sur 0 -- -- 23
2021-02-19 17:00:00 18.1 39 Sur 61 Sudoeste 0 -- -- 26
2021-02-19 16:00:00 18 23 Sur 55 Sur 0 -- -- 24
2021-02-19 15:00:00 17.7 37 Sur 57 Sudoeste 0 -- -- 31
2021-02-19 14:00:00 17.7 34 Sur 54 Sur 0 -- -- 36
2021-02-19 13:00:00 17.8 30 Sur 49 Sur 0 -- -- 39
2021-02-19 12:00:00 18.2 27 Sur 46 Sur 0 -- -- 41
2021-02-19 11:00:00 15.1 10 Sur 18 Sudeste 0 -- -- 55
2021-02-19 10:00:00 12.7 8 Sur 11 Sudeste 0 -- -- 62
2021-02-19 09:00:00 10.2 3 Sur 9 Sudeste 0 -- -- 65
2021-02-19 08:00:00 6.9 6 Sur 15 Sur 0 -- -- 86
2021-02-19 07:00:00 6.9 3 Sudoeste 15 Sudeste 0 -- -- 88
2021-02-19 06:00:00 7 3 Sudoeste 5 Sur 0 -- -- 87
2021-02-19 05:00:00 6.9 5 Sudoeste 10 Noroeste 0 -- -- 86
2021-02-19 04:00:00 6.3 3 Sur 13 Sudoeste 0 -- -- 91
2021-02-19 03:00:00 6.6 5 Noroeste 15 Sudoeste 0 -- -- 92
2021-02-19 02:00:00 6.5 3 Oeste 13 Sudoeste 0 -- -- 93
2021-02-19 01:00:00 6.6 3 Oeste 14 Sudoeste 0 -- -- 94
2021-02-19 00:00:00 6.9 8 Sudoeste 13 Sudoeste 0 -- -- 96
2021-02-18 23:00:00 7.5 5 Sur 10 Sudeste 0 -- -- 93
2021-02-18 22:00:00 8.1 2 Este 9 Sudeste 0 -- -- 90
2021-02-18 21:00:00 8.5 5 Sudeste 9 Sudeste 0 -- -- 90
2021-02-18 20:00:00 9.2 4 Sudeste 8 Sur 0 -- -- 88
2021-02-18 19:00:00 9.7 5 Sur 10 Sudeste 0 -- -- 88
2021-02-18 18:00:00 10.6 6 Sur 10 Sur 0 -- -- 86
2021-02-18 17:00:00 10.7 7 Sur 10 Sudoeste 0 -- -- 87
2021-02-18 16:00:00 10.8 8 Sur 13 Sur 0 -- -- 89
2021-02-18 15:00:00 10.2 4 Oeste 9 Norte 0.6 -- -- 93
2021-02-18 14:00:00 10.4 3 Oeste 27 Oeste 0 -- -- 92
2021-02-18 13:00:00 9.8 13 Noroeste 27 Noroeste 0.6 -- -- 96
2021-02-18 12:00:00 10.6 13 Noroeste 26 Noroeste 0.4 -- -- 95
2021-02-18 11:00:00 10.9 18 Norte 38 Noroeste 0 -- -- 90
2021-02-18 10:00:00 11.6 9 Noroeste 27 Noroeste 0 -- -- 87
2021-02-18 09:00:00 12.2 10 Norte 23 Norte 0 -- -- 81
2021-02-18 08:00:00 13.1 16 Norte 32 Norte 0 -- -- 69
2021-02-18 07:00:00 16.2 12 Sudoeste 23 Sudoeste 0 -- -- 34
2021-02-18 06:00:00 16.4 6 Sudoeste 36 Sudoeste 0 -- -- 33
2021-02-18 05:00:00 17.1 27 Sur 59 Sudoeste 0 -- -- 33
2021-02-18 04:00:00 16.5 8 Sudoeste 18 Sur 0 -- -- 37
2021-02-18 03:00:00 17.3 8 Sur 25 Sur 0 -- -- 35
2021-02-18 02:00:00 15.1 7 Sur 26 Sudeste 0 -- -- 49
2021-02-18 01:00:00 16.2 16 Sur 38 Sudeste 0 -- -- 47
2021-02-18 00:00:00 16.4 18 Sur 24 Sudeste 0 -- -- 47
2021-02-17 23:00:00 16.6 15 Sur 31 Sur 0 -- -- 47
2021-02-17 22:00:00 16.5 14 Sur 53 Sur 0 -- -- 45
2021-02-17 21:00:00 16.4 22 Sur 37 Sudeste 0 -- -- 44
2021-02-17 20:00:00 15.6 16 Sur 32 Sur 0 -- -- 52
2021-02-17 19:00:00 15.4 17 Sur 27 Sur 0 -- -- 52
2021-02-17 18:00:00 15.5 0 Calma 13 Sur 0 -- -- 64
2021-02-17 17:00:00 15.6 0 Calma 6 Este 0 -- -- 68
2021-02-17 16:00:00 15.5 5 Norte 13 Norte 0 -- -- 63
2021-02-17 15:00:00 15.7 6 Noroeste 14 Norte 0 -- -- 63
2021-02-17 14:00:00 15.4 6 Norte 13 Norte 0 -- -- 62
2021-02-17 13:00:00 16.2 7 Norte 11 Norte 0 -- -- 57
2021-02-17 12:00:00 16 4 Sur 9 Sudeste 0 -- -- 50
2021-02-17 11:00:00 13.3 4 Sudeste 9 Sur 0 -- -- 57
2021-02-17 10:00:00 10.4 3 Sur 10 Sudoeste 0 -- -- 71
2021-02-17 09:00:00 8.6 0 Calma 11 Sudoeste 0 -- -- 78
2021-02-17 08:00:00 8.3 3 Oeste 12 Sudoeste 0 -- -- 65
2021-02-17 07:00:00 7.9 4 Sudoeste 15 Sudoeste 0 -- -- 65
2021-02-17 06:00:00 7.5 9 Sudoeste 15 Sudoeste 0 -- -- 74
2021-02-17 05:00:00 8.4 8 Sudoeste 15 Sudoeste 0 -- -- 76
2021-02-17 04:00:00 7.8 4 Sudoeste 19 Sudoeste 0 -- -- 82
2021-02-17 03:00:00 7.7 5 Sudoeste 14 Sudoeste 0 -- -- 86
2021-02-17 02:00:00 8 9 Sudoeste 14 Sudoeste 0 -- -- 87
2021-02-17 01:00:00 7.9 10 Sudoeste 13 Sudoeste 0 -- -- 88
2021-02-17 00:00:00 10.2 8 Sudoeste 19 Sudoeste 0 -- -- 75
2021-02-16 23:00:00 10.5 4 Sudoeste 8 Sudoeste 0 -- -- 74
2021-02-16 22:00:00 11.2 4 Sur 5 Sur 0 -- -- 73
2021-02-16 21:00:00 11 3 Sudeste 10 Sudeste 0 -- -- 77
2021-02-16 20:00:00 11.4 4 Este 8 Este 0 -- -- 75
2021-02-16 19:00:00 12 2 Nordeste 9 Este 0 -- -- 73
2021-02-16 18:00:00 13.1 5 Nordeste 17 Nordeste 0 -- -- 69
2021-02-16 17:00:00 14.1 5 Este 9 Este 0 -- -- 67
2021-02-16 16:00:00 13.5 5 Sudeste 13 Sudeste 0 -- -- 73
2021-02-16 15:00:00 13.4 7 Sudeste 15 Sur 0 -- -- 76
2021-02-16 14:00:00 14.4 6 Sur 26 Oeste 0 -- -- 69
2021-02-16 13:00:00 12.4 10 Oeste 44 Oeste 0 -- -- 80
2021-02-16 12:00:00 12.9 16 Noroeste 51 Oeste 0 -- -- 77
2021-02-16 11:00:00 15 22 Oeste 52 Oeste 0 -- -- 54
2021-02-16 10:00:00 16.8 23 Sur 40 Sur 0 -- -- 33
2021-02-16 09:00:00 14.4 8 Este 49 Sur 0 -- -- 40
2021-02-16 08:00:00 14.4 32 Sur 54 Sur 0 -- -- 42
2021-02-16 07:00:00 14.6 38 Sur 58 Sur 0 -- -- 41
2021-02-16 06:00:00 14.7 36 Sur 54 Sur 0 -- -- 41
2021-02-16 05:00:00 16 34 Sur 55 Sur 0 -- -- 37
2021-02-16 04:00:00 15.3 33 Sur 45 Sur 0 -- -- 40
2021-02-16 03:00:00 15 22 Sur 49 Sur 0 -- -- 43
2021-02-16 02:00:00 16 36 Sur 50 Sur 0 -- -- 40
2021-02-16 01:00:00 15.6 27 Sur 43 Sur 0 -- -- 44
2021-02-16 00:00:00 14.6 19 Sudeste 45 Sudeste 0 -- -- 48
2021-02-15 23:00:00 14.6 35 Sur 50 Sur 0 -- -- 49
2021-02-15 22:00:00 15.6 28 Sur 53 Sur 0 -- -- 44
2021-02-15 21:00:00 18 23 Sur 45 Sur 0 -- -- 35
2021-02-15 20:00:00 18.2 17 Sudeste 35 Sur 0 -- -- 29
2021-02-15 19:00:00 17.9 20 Sudeste 32 Sudeste 0 -- -- 35
2021-02-15 18:00:00 17.6 18 Sudeste 32 Sudeste 0 -- -- 39
2021-02-15 17:00:00 18.6 13 Sudeste 27 Sur 0 -- -- 37
2021-02-15 16:00:00 19.5 14 Sur 36 Sur 0 -- -- 35
2021-02-15 15:00:00 20.7 24 Sur 36 Sur 0 -- -- 32
2021-02-15 14:00:00 20.9 18 Sudeste 27 Sudeste 0 -- -- 35
2021-02-15 13:00:00 19.3 12 Sudeste 22 Sur 0 -- -- 40
2021-02-15 12:00:00 17.8 15 Sudeste 26 Sudeste 0 -- -- 42
2021-02-15 11:00:00 16.5 18 Sur 27 Sudeste 0 -- -- 43
2021-02-15 10:00:00 14.9 13 Sur 27 Sur 0 -- -- 47
2021-02-15 09:00:00 13.6 15 Sur 25 Sudeste 0 -- -- 49
2021-02-15 08:00:00 12.8 13 Sur 22 Sudeste 0 -- -- 51
2021-02-15 07:00:00 13.1 13 Sur 22 Sudeste 0 -- -- 49
2021-02-15 06:00:00 12.8 13 Sur 20 Sudeste 0 -- -- 52
2021-02-15 05:00:00 13.9 13 Sur 28 Sur 0 -- -- 50
2021-02-15 04:00:00 15.3 21 Sur 32 Sur 0 -- -- 44
2021-02-15 03:00:00 15.9 22 Sur 30 Sur 0 -- -- 39
2021-02-15 02:00:00 14.5 16 Sur 23 Sur 0 -- -- 44
2021-02-15 01:00:00 13.5 12 Sur 19 Sur 0 -- -- 50
2021-02-15 00:00:00 14 11 Sur 20 Sur 0 -- -- 42
2021-02-14 23:00:00 14.2 11 Sur 20 Sur 0 -- -- 45
2021-02-14 22:00:00 14.2 14 Sur 22 Sur 0 -- -- 47
2021-02-14 21:00:00 14.6 13 Sur 22 Sur 0 -- -- 50
2021-02-14 20:00:00 15.5 13 Sur 26 Sudeste 0 -- -- 51
2021-02-14 19:00:00 16.5 16 Sur 32 Sur 0 -- -- 48
2021-02-14 18:00:00 17.3 14 Sudeste 26 Sudeste 0 -- -- 49
2021-02-14 17:00:00 17.5 14 Sur 23 Sur 0 -- -- 49
2021-02-14 16:00:00 17.8 10 Sudeste 26 Sudeste 0 -- -- 51
2021-02-14 15:00:00 18.1 18 Sudeste 28 Sudeste 0 -- -- 47
2021-02-14 14:00:00 19.8 14 Sur 23 Sur 0 -- -- 42
2021-02-14 13:00:00 19.9 14 Sur 20 Sur 0 -- -- 43
2021-02-14 12:00:00 18.3 8 Sur 12 Sur 0 -- -- 50
2021-02-14 11:00:00 15.4 7 Sur 12 Sudoeste 0 -- -- 64
2021-02-14 10:00:00 11.5 8 Sudoeste 15 Sudoeste 0 -- -- 71
2021-02-14 09:00:00 10 8 Sudoeste 17 Sur 0 -- -- 76
2021-02-14 08:00:00 7.6 13 Sudoeste 16 Sudoeste 0 -- -- 82
2021-02-14 07:00:00 8.5 9 Sur 14 Sudoeste 0 -- -- 80
2021-02-14 06:00:00 9 10 Sudoeste 14 Sudoeste 0 -- -- 77
2021-02-14 05:00:00 8.5 9 Sudoeste 14 Sudoeste 0 -- -- 83
2021-02-14 04:00:00 9.4 11 Sudoeste 16 Sur 0 -- -- 80
2021-02-14 03:00:00 8.8 9 Sudoeste 16 Sudoeste 0 -- -- 83
2021-02-14 02:00:00 9.3 10 Sudoeste 15 Sudoeste 0 -- -- 85
2021-02-14 01:00:00 9.7 9 Sudoeste 12 Sudoeste 0 -- -- 86
2021-02-14 00:00:00 10.5 6 Sur 12 Sur 0 -- -- 83
2021-02-13 23:00:00 10.6 8 Sur 15 Sudeste 0 -- -- 86
2021-02-13 22:00:00 10.7 4 Sur 6 Sur 0 -- -- 89
2021-02-13 21:00:00 11.7 0 Calma 6 Sur 0 -- -- 85
2021-02-13 20:00:00 12.6 0 Calma 5 Sudeste 0 -- -- 79
2021-02-13 19:00:00 13.9 3 Sur 4 Sudeste 0 -- -- 71
2021-02-13 18:00:00 15.2 0 Calma 3 Nordeste 0 -- -- 67
2021-02-13 17:00:00 15.9 0 Calma 5 Nordeste 0 -- -- 65
2021-02-13 16:00:00 15.5 0 Calma 9 Sudeste 0 -- -- 65
2021-02-13 15:00:00 14.7 5 Sudeste 12 Sudeste 0 -- -- 68
2021-02-13 14:00:00 13.8 8 Sur 10 Sur 0 -- -- 75
2021-02-13 13:00:00 11.8 8 Sudoeste 13 Sudoeste 0 -- -- 83
2021-02-13 08:00:00 -- -- -- -- -- -- -- -- --
2021-02-13 07:00:00 -- -- -- -- -- -- -- -- --
2021-02-13 06:00:00 7.8 6 Sudoeste 12 Sudoeste 0 -- -- 93
2021-02-13 05:00:00 7.5 8 Sudoeste 13 Sudoeste 0 -- -- 94
2021-02-13 04:00:00 7.7 7 Sudoeste 14 Sudoeste 0 -- -- 94
2021-02-13 03:00:00 7.7 10 Sudoeste 14 Sudoeste 0 -- -- 94
2021-02-13 02:00:00 8.3 10 Sudoeste 15 Oeste 0 -- -- 94
2021-02-13 01:00:00 8.6 9 Sudoeste 13 Sudoeste 0 -- -- 94
2021-02-13 00:00:00 9.1 7 Sudoeste 12 Sudoeste 0 -- -- 96
2021-02-12 23:00:00 9.3 5 Sudoeste 9 Sudoeste 0 -- -- 96
2021-02-12 22:00:00 9.7 5 Sudoeste 8 Sudoeste 0 -- -- 95
2021-02-12 21:00:00 10 4 Sudoeste 9 Oeste 0 -- -- 96
2021-02-12 20:00:00 10.4 4 Sudoeste 10 Sudoeste 0 -- -- 94
2021-02-12 19:00:00 10.8 5 Oeste 19 Noroeste 0 -- -- 93
2021-02-12 18:00:00 12.1 7 Noroeste 19 Oeste 0 -- -- 91
2021-02-12 17:00:00 12.2 8 Noroeste 23 Oeste 0 -- -- 92
2021-02-12 16:00:00 12.3 13 Noroeste 30 Noroeste 0 -- -- 90
2021-02-12 15:00:00 12.5 13 Noroeste 35 Noroeste 0 -- -- 91
2021-02-12 14:00:00 11.8 12 Noroeste 36 Oeste 0 -- -- 93
2021-02-12 13:00:00 11.3 11 Oeste 37 Oeste 1 -- -- 96
2021-02-12 12:00:00 11.6 11 Oeste 40 Sudoeste 0.2 -- -- 94
2021-02-12 11:00:00 11.2 10 Oeste 34 Oeste 0.8 -- -- 94
2021-02-12 10:00:00 11.3 12 Oeste 42 Oeste 0 -- -- 96
2021-02-12 09:00:00 11.3 6 Oeste 31 Noroeste 1.2 -- -- 98
2021-02-12 08:00:00 11.7 9 Oeste 27 Oeste 1 -- -- 97
2021-02-12 07:00:00 11.4 7 Sudoeste 14 Sudoeste 0 -- -- 100
2021-02-12 06:00:00 11.3 9 Sudoeste 14 Sudoeste 0.2 -- -- 100
2021-02-12 05:00:00 11.4 5 Sudoeste 20 Oeste 1.4 -- -- 99
2021-02-12 04:00:00 11.5 8 Oeste 29 Oeste 3.4 -- -- 99
2021-02-12 03:00:00 11.5 15 Oeste 45 Oeste 0.4 -- -- 97
2021-02-12 02:00:00 11.9 21 Oeste 40 Oeste 0 -- -- 90
2021-02-12 01:00:00 12.3 4 Sudoeste 18 Oeste 0 -- -- 84
2021-02-12 00:00:00 12.7 0 Calma 9 Norte 0 -- -- 84
2021-02-11 23:00:00 13.5 0 Calma 9 Sudeste 0 -- -- 80
2021-02-11 22:00:00 12.3 4 Sudeste 8 Sudeste 0 -- -- 87
2021-02-11 21:00:00 12.7 2 Este 8 Este 0 -- -- 81
2021-02-11 20:00:00 13 3 Sudeste 9 Noroeste 0 -- -- 82
2021-02-11 19:00:00 13.7 5 Norte 12 Noroeste 0 -- -- 82
2021-02-11 18:00:00 15.2 2 Norte 6 Nordeste 0 -- -- 69
2021-02-11 17:00:00 16.2 4 Nordeste 14 Este 0 -- -- 67
2021-02-11 16:00:00 16 5 Norte 17 Norte 0 -- -- 72
2021-02-11 15:00:00 15.2 11 Sur 14 Sur 0.2 -- -- 78
2021-02-11 14:00:00 14.6 4 Sudoeste 17 Oeste 0 -- -- 62
2021-02-11 13:00:00 13.9 9 Norte 27 Noroeste 0 -- -- 65
2021-02-11 12:00:00 15.5 5 Sur 11 Sudeste 0 -- -- 61
2021-02-11 11:00:00 15.2 5 Sudeste 12 Sudeste 0 -- -- 61
2021-02-11 10:00:00 11.4 3 Sudeste 10 Sur 0 -- -- 79
2021-02-11 09:00:00 9.8 6 Sudeste 12 Sur 0 -- -- 82
2021-02-11 08:00:00 8.8 5 Sur 10 Sudeste 0 -- -- 87
2021-02-11 07:00:00 8.5 5 Sur 8 Sur 0 -- -- 92
2021-02-11 06:00:00 8.2 4 Sur 10 Sudoeste 0 -- -- 94
2021-02-11 05:00:00 8.4 4 Sur 11 Sur 0 -- -- 92
2021-02-11 04:00:00 8.4 4 Sur 10 Este 0 -- -- 93
2021-02-11 03:00:00 8.4 6 Sudeste 9 Sudeste 0 -- -- 95
2021-02-11 02:00:00 8.2 4 Sudeste 8 Este 0 -- -- 94
2021-02-11 01:00:00 8.6 2 Sur 4 Sudeste 0 -- -- 93
2021-02-11 00:00:00 9.1 0 Calma 4 Sudoeste 0 -- -- 91
2021-02-10 23:00:00 9.3 4 Sudoeste 6 Sudoeste 0 -- -- 90
2021-02-10 22:00:00 9.9 4 Sudoeste 7 Sudoeste 0 -- -- 89
2021-02-10 21:00:00 10.1 4 Oeste 9 Oeste 0 -- -- 87
2021-02-10 20:00:00 10.3 5 Noroeste 17 Noroeste 0 -- -- 85
2021-02-10 19:00:00 10.4 13 Noroeste 26 Noroeste 0 -- -- 83
2021-02-10 18:00:00 10.7 11 Noroeste 26 Noroeste 0 -- -- 81
2021-02-10 17:00:00 11.8 11 Noroeste 35 Noroeste 0 -- -- 71
2021-02-10 16:00:00 12.8 13 Noroeste 33 Noroeste 0 -- -- 63
2021-02-10 15:00:00 13 11 Noroeste 36 Noroeste 0 -- -- 61
2021-02-10 14:00:00 13 12 Noroeste 41 Oeste 0 -- -- 59
2021-02-10 13:00:00 11.9 15 Oeste 49 Oeste 0 -- -- 61
2021-02-10 12:00:00 12.3 13 Noroeste 39 Oeste 0 -- -- 56
2021-02-10 11:00:00 10.7 11 Oeste 40 Noroeste 0 -- -- 60
2021-02-10 10:00:00 10 13 Oeste 44 Oeste 0 -- -- 59
2021-02-10 09:00:00 8.4 5 Sudoeste 15 Sudoeste 0 -- -- 69
2021-02-10 08:00:00 8 8 Oeste 25 Oeste 0 -- -- 74
2021-02-10 07:00:00 6.6 8 Sur 16 Sur 0 -- -- 95
2021-02-10 06:00:00 7.2 4 Sudoeste 22 Oeste 0.2 -- -- 95
2021-02-10 05:00:00 7.3 8 Oeste 21 Oeste 1.4 -- -- 96
2021-02-10 04:00:00 6.5 9 Sudoeste 19 Sudoeste 0.2 -- -- 93
2021-02-10 03:00:00 6.8 0 Calma 10 Nordeste 0 -- -- 93
2021-02-10 02:00:00 6.9 3 Norte 8 Norte 0 -- -- 93
2021-02-10 01:00:00 7.3 6 Sudoeste 15 Sudoeste 0 -- -- 91
2021-02-10 00:00:00 7.5 2 Sur 6 Sudoeste 0 -- -- 86
2021-02-09 23:00:00 8.2 4 Sudeste 11 Sudeste 0 -- -- 87
2021-02-09 22:00:00 8.6 2 Sur 7 Sur 0 -- -- 87
2021-02-09 21:00:00 8.9 2 Norte 6 Norte 0 -- -- 86
2021-02-09 20:00:00 9 5 Norte 9 Norte 0 -- -- 82
2021-02-09 19:00:00 8.9 5 Sudeste 10 Noroeste 0 -- -- 79
2021-02-09 18:00:00 10.3 3 Norte 12 Noroeste 0 -- -- 78
2021-02-09 17:00:00 12.5 6 Norte 14 Noroeste 0 -- -- 67
2021-02-09 16:00:00 12.9 4 Oeste 32 Noroeste 0 -- -- 59
2021-02-09 15:00:00 11.2 16 Oeste 34 Noroeste 0 -- -- 84
2021-02-09 14:00:00 9.6 17 Sur 27 Sudeste 0.2 -- -- 96
2021-02-09 13:00:00 9.6 10 Sur 30 Norte 1.6 -- -- 94
2021-02-09 12:00:00 10.8 17 Noroeste 31 Oeste 0.6 -- -- 83
2021-02-09 11:00:00 13.9 16 Sudoeste 50 Sur 0 -- -- 45
2021-02-09 10:00:00 13.1 21 Sur 36 Sur 0 -- -- 53
2021-02-09 09:00:00 11 19 Sur 27 Sudeste 0 -- -- 66
2021-02-09 08:00:00 10.7 15 Sudeste 39 Sur 0 -- -- 66
2021-02-09 07:00:00 10.4 27 Sur 41 Sur 0 -- -- 66
2021-02-09 06:00:00 9.9 19 Sur 32 Sur 0 -- -- 72
2021-02-09 05:00:00 7.8 3 Sur 11 Sudoeste 0 -- -- 87
2021-02-09 04:00:00 8.2 5 Sudoeste 11 Sudeste 0 -- -- 83
2021-02-09 03:00:00 7.9 5 Sudeste 13 Sudeste 0 -- -- 84
2021-02-09 02:00:00 7.5 6 Sur 10 Sudoeste 0 -- -- 88
2021-02-09 01:00:00 8.3 9 Sudoeste 13 Sudoeste 0 -- -- 87
2021-02-09 00:00:00 8.3 10 Sur 17 Sudoeste 0 -- -- 92
2021-02-08 23:00:00 8.6 3 Sudeste 9 Sudoeste 0 -- -- 92
2021-02-08 22:00:00 8.8 8 Sudoeste 13 Sudoeste 0 -- -- 93
2021-02-08 21:00:00 9.2 6 Sudoeste 11 Sudoeste 0 -- -- 92
2021-02-08 20:00:00 9.7 5 Sudoeste 19 Sudoeste 0 -- -- 89
2021-02-08 19:00:00 10.3 3 Sudoeste 19 Noroeste 0 -- -- 87
2021-02-08 18:00:00 11.1 7 Noroeste 23 Noroeste 0 -- -- 79
2021-02-08 17:00:00 11.9 11 Noroeste 24 Noroeste 0 -- -- 73
2021-02-08 16:00:00 12.4 10 Noroeste 27 Noroeste 0 -- -- 71
2021-02-08 15:00:00 13.1 9 Noroeste 26 Noroeste 0 -- -- 64
2021-02-08 14:00:00 12.3 17 Noroeste 28 Noroeste 0 -- -- 64
2021-02-08 13:00:00 13.3 12 Noroeste 21 Noroeste 0.2 -- -- 58
2021-02-08 12:00:00 13.8 5 Noroeste 17 Noroeste 0 -- -- 57
2021-02-08 11:00:00 12.8 5 Oeste 14 Sur 0 -- -- 64
2021-02-08 10:00:00 9.7 5 Sudoeste 14 Sudoeste 0 -- -- 85
2021-02-08 09:00:00 8.4 8 Sur 12 Sudoeste 0 -- -- 90
2021-02-08 08:00:00 9.3 5 Sudoeste 15 Oeste 0 -- -- 84
2021-02-08 07:00:00 9.4 4 Sudoeste 12 Sudoeste 0 -- -- 85
2021-02-08 06:00:00 9.3 9 Sudoeste 21 Oeste 0 -- -- 87
2021-02-08 05:00:00 9.9 10 Oeste 24 Oeste 0 -- -- 83
2021-02-08 04:00:00 10.1 4 Sudoeste 8 Sur 0 -- -- 70
2021-02-08 03:00:00 9.7 6 Sur 18 Sur 0 -- -- 74
2021-02-08 02:00:00 9.3 10 Sur 15 Sur 0 -- -- 78
2021-02-08 01:00:00 9.5 6 Sudoeste 13 Sudoeste 0 -- -- 76
2021-02-08 00:00:00 9.6 7 Sudoeste 13 Sudoeste 0 -- -- 73
2021-02-07 23:00:00 8.9 8 Sur 16 Sur 0 -- -- 78
2021-02-07 22:00:00 8.1 12 Sur 20 Sur 0 -- -- 81
2021-02-07 21:00:00 7 6 Sur 10 Sudeste 0 -- -- 93
2021-02-07 20:00:00 6.9 3 Sur 12 Este 0.4 -- -- 91
2021-02-07 19:00:00 7.1 5 Este 9 Este 0.2 -- -- 81
2021-02-07 18:00:00 8.1 2 Nordeste 5 Noroeste 0 -- -- 81
2021-02-07 17:00:00 9.4 3 Norte 5 Norte 0.2 -- -- 68
2021-02-07 16:00:00 9.9 4 Norte 10 Norte 0 -- -- 60
2021-02-07 15:00:00 9.9 5 Norte 7 Norte 0 -- -- 57
2021-02-07 14:00:00 9.6 5 Sudeste 8 Sudeste 0 -- -- 62
2021-02-07 13:00:00 9.2 3 Sur 9 Sur 0 -- -- 67
2021-02-07 12:00:00 8 5 Sur 14 Sudoeste 0 -- -- 76
2021-02-07 11:00:00 6.8 10 Sudoeste 16 Sudoeste 0 -- -- 75
2021-02-07 10:00:00 5.8 9 Sudoeste 17 Sudoeste 0 -- -- 76
2021-02-07 09:00:00 4.6 10 Sudoeste 19 Sudoeste 0 -- -- 79
2021-02-07 08:00:00 4.2 11 Sudoeste 21 Sudoeste 0 -- -- 81
2021-02-07 07:00:00 3.9 12 Sudoeste 19 Sudoeste 0 -- -- 85
2021-02-07 06:00:00 4.1 12 Sudoeste 17 Sudoeste 0 -- -- 86
2021-02-07 05:00:00 4.7 9 Sudoeste 16 Oeste 0 -- -- 85
2021-02-07 04:00:00 5.6 5 Sudoeste 17 Sudoeste 0 -- -- 81
2021-02-07 03:00:00 6.3 6 Sudoeste 19 Oeste 0 -- -- 78
2021-02-07 02:00:00 6.6 8 Oeste 21 Sudoeste 0 -- -- 81
2021-02-07 01:00:00 6.1 8 Sudoeste 22 Sudoeste 0 -- -- 86
2021-02-07 00:00:00 5.5 8 Sudoeste 18 Sur 0 -- -- 92
2021-02-06 23:00:00 5.7 7 Sudoeste 20 Sudoeste 0 -- -- 94
2021-02-06 22:00:00 6.2 9 Sudoeste 22 Sudoeste 0.4 -- -- 94
2021-02-06 21:00:00 6.5 7 Oeste 31 Oeste 0 -- -- 94
2021-02-06 20:00:00 6.6 8 Oeste 20 Sudoeste 1.2 -- -- 95
2021-02-06 19:00:00 7 6 Noroeste 19 Oeste 1 -- -- 93
2021-02-06 18:00:00 7.7 12 Noroeste 30 Noroeste 0 -- -- 92
2021-02-06 17:00:00 7.3 9 Noroeste 37 Noroeste 0.6 -- -- 100
2021-02-06 16:00:00 7.6 21 Norte 36 Noroeste 2.4 -- -- 100
2021-02-06 15:00:00 8 9 Noroeste 27 Norte 2.4 -- -- 100
2021-02-06 14:00:00 8 15 Norte 37 Norte 2.4 -- -- 100
2021-02-06 13:00:00 8.2 18 Norte 40 Noroeste 4.6 -- -- 100
2021-02-06 12:00:00 8.3 14 Noroeste 34 Noroeste 1.8 -- -- 100
2021-02-06 11:00:00 8.1 12 Noroeste 26 Norte 2.6 -- -- 100
2021-02-06 10:00:00 7.9 18 Noroeste 33 Norte 3.2 -- -- 100
2021-02-06 09:00:00 8.2 20 Norte 32 Norte 3.2 -- -- 100
2021-02-06 08:00:00 8.3 23 Norte 36 Norte 6.6 -- -- 100
2021-02-06 07:00:00 8.2 22 Norte 51 Norte 6.4 -- -- 100
2021-02-06 06:00:00 8.3 22 Norte 45 Norte 5.4 -- -- 100
2021-02-06 05:00:00 8.4 27 Norte 57 Norte 3.2 -- -- 100
2021-02-06 04:00:00 8.6 29 Norte 50 Norte 2 -- -- 100
2021-02-06 03:00:00 9 23 Norte 41 Norte 3.8 -- -- 100
2021-02-06 02:00:00 9.5 18 Norte 32 Norte 5.6 -- -- 100
2021-02-06 01:00:00 9.6 12 Norte 24 Norte 5 -- -- 100
2021-02-06 00:00:00 9.6 8 Nordeste 26 Este 1 -- -- 100
2021-02-05 23:00:00 9.8 8 Nordeste 16 Nordeste 1.2 -- -- 100
2021-02-05 22:00:00 9.5 0 Calma 7 Noroeste 2 -- -- 100
2021-02-05 21:00:00 9.2 4 Sudoeste 8 Sudoeste 2 -- -- 100
2021-02-05 20:00:00 9.2 5 Sudoeste 9 Sudoeste 0.8 -- -- 100
2021-02-05 19:00:00 9.3 0 Calma 2 Este 0.2 -- -- 100
2021-02-05 18:00:00 9.3 0 Calma 6 Sudoeste 0.2 -- -- 100
2021-02-05 17:00:00 9.4 0 Calma 8 Sudoeste 0.2 -- -- 100
2021-02-05 16:00:00 9.5 0 Calma 5 Oeste 0.4 -- -- 100
2021-02-05 15:00:00 9.5 3 Noroeste 9 Oeste 0 -- -- 100
2021-02-05 14:00:00 9.6 2 Noroeste 5 Norte 0.4 -- -- 100
2021-02-05 13:00:00 9.3 2 Norte 6 Sudoeste 1.2 -- -- 100
2021-02-05 12:00:00 8.9 3 Sudoeste 6 Sudoeste 0.8 -- -- 100
2021-02-05 11:00:00 8.4 4 Sudoeste 10 Sudoeste 0 -- -- 100
2021-02-05 10:00:00 8.2 0 Calma 8 Sur 1 -- -- 99
2021-02-05 09:00:00 8.1 4 Sudoeste 11 Sudoeste 1.4 -- -- 98
2021-02-05 08:00:00 8.3 4 Sur 10 Sudoeste 0.2 -- -- 97
2021-02-05 07:00:00 8.2 7 Sudoeste 9 Sudoeste 0.2 -- -- 98
2021-02-05 06:00:00 7.9 4 Sur 6 Sur 0.4 -- -- 97
2021-02-05 05:00:00 7.8 3 Nordeste 12 Sudoeste 0.2 -- -- 96
2021-02-05 04:00:00 7.7 8 Sur 10 Sudoeste 0 -- -- 96
2021-02-05 03:00:00 7.9 8 Sur 13 Sur 0 -- -- 95
2021-02-05 02:00:00 7.9 7 Sudoeste 13 Sudoeste 0 -- -- 96
2021-02-05 01:00:00 7.7 7 Sur 10 Sudoeste 0 -- -- 97
2021-02-05 00:00:00 8.5 0 Calma 9 Sudoeste 0 -- -- 95
2021-02-04 23:00:00 8 2 Noroeste 8 Sudoeste 0 -- -- 96
2021-02-04 22:00:00 8.1 4 Oeste 6 Oeste 0.2 -- -- 96
2021-02-04 21:00:00 8.5 3 Nordeste 10 Este 0 -- -- 95
2021-02-04 20:00:00 8.8 3 Norte 17 Este 0 -- -- 93
2021-02-04 19:00:00 9.2 8 Sudeste 16 Sudeste 0.4 -- -- 90
2021-02-04 18:00:00 9.8 7 Sudeste 16 Sudeste 0 -- -- 88
2021-02-04 17:00:00 10.9 10 Sudeste 14 Sudeste 0.4 -- -- 89
2021-02-04 16:00:00 11.9 0 Calma 7 Sudeste 0 -- -- 93
2021-02-04 15:00:00 12 3 Norte 13 Norte 0 -- -- 90
2021-02-04 14:00:00 13.5 5 Noroeste 11 Oeste 0 -- -- 77
2021-02-04 13:00:00 12.9 6 Norte 17 Noroeste 0 -- -- 70
2021-02-04 12:00:00 12.4 0 Calma 4 Sudeste 0 -- -- 60
2021-02-04 11:00:00 11.4 0 Calma 12 Sudeste 0 -- -- 60
2021-02-04 10:00:00 10.6 3 Este 8 Sudeste 0 -- -- 57
2021-02-04 09:00:00 11.1 5 Sudoeste 10 Sur 0 -- -- 50
2021-02-04 08:00:00 10.6 3 Sudoeste 9 Sudoeste 0 -- -- 53
2021-02-04 07:00:00 10.2 5 Sur 6 Sur 0 -- -- 61
2021-02-04 06:00:00 11.2 6 Sur 12 Sudeste 0 -- -- 55
2021-02-04 05:00:00 11 4 Sudoeste 10 Sudoeste 0 -- -- 62
2021-02-04 04:00:00 10.8 4 Este 19 Oeste 0 -- -- 62
2021-02-04 03:00:00 11.7 5 Nordeste 11 Oeste 0 -- -- 61
2021-02-04 02:00:00 10.9 3 Norte 8 Sur 0 -- -- 63
2021-02-04 01:00:00 9.8 2 Norte 17 Sur 0 -- -- 71
2021-02-04 00:00:00 10.8 5 Sur 13 Sur 0 -- -- 68